Time;durP1;ratioP1;P1;durP2;ratioP2;P2;SDS_P1;SDS_P2;PMS_P1;PMS_P2;Temp;Humidity;BMP_temperature;BMP_pressure;BME280_temperature;BME280_humidity;BME280_pressure;Samples;Min_cycle;Max_cycle;Signal;HPM_P1;HPM_P2
2023/09/19 00:09:19;;;;;;;217.23;207.32;;;;;;;15.28;100.00;100668.94;10498008;28;20036;-70
2023/09/19 00:14:20;;;;;;;196.77;188.70;;;;;;;15.15;100.00;100677.31;10464835;28;20032;-70
2023/09/19 00:19:26;;;;;;;187.57;180.15;;;;;;;14.99;100.00;100682.38;10497760;28;20068;-70
2023/09/19 00:24:32;;;;;;;172.35;165.52;;;;;;;15.05;100.00;100681.44;10498176;28;20043;-70
2023/09/19 00:29:33;;;;;;;191.73;182.77;;;;;;;15.06;100.00;100685.84;10498151;28;20102;-70
2023/09/19 00:34:34;;;;;;;215.27;205.95;;;;;;;15.01;100.00;100691.16;10480873;28;20541;-70
2023/09/19 00:39:34;;;;;;;152.90;146.23;;;;;;;15.09;100.00;100693.56;10480113;28;20037;-70
2023/09/19 00:44:37;;;;;;;333.58;318.13;;;;;;;15.04;100.00;100701.59;10462869;28;20131;-70
2023/09/19 00:49:41;;;;;;;189.40;181.75;;;;;;;15.01;100.00;100695.78;10478818;28;20032;-70
2023/09/19 00:54:42;;;;;;;167.00;160.02;;;;;;;14.97;100.00;100697.31;10447015;28;20028;-69
2023/09/19 00:59:43;;;;;;;220.70;210.07;;;;;;;14.91;100.00;100696.34;10461767;28;20476;-70
2023/09/19 01:04:44;;;;;;;206.93;197.60;;;;;;;14.85;100.00;100716.34;10495682;28;20063;-70
2023/09/19 01:09:45;;;;;;;205.20;196.15;;;;;;;14.94;100.00;100712.25;10461894;28;20032;-70
2023/09/19 01:14:57;;;;;;;149.10;142.45;;;;;;;14.93;100.00;100709.72;10477698;28;20465;-70
2023/09/19 01:20:08;;;;;;;189.77;180.95;;;;;;;14.94;100.00;100695.06;10461376;28;20044;-70
2023/09/19 01:25:36;;;;;;;294.02;276.13;;;;;;;15.15;100.00;100713.59;10497438;28;20025;-70
2023/09/19 01:30:43;;;;;;;242.27;230.98;;;;;;;14.93;100.00;100709.72;10498788;28;20051;-70
2023/09/19 01:35:52;;;;;;;179.70;171.82;;;;;;;14.79;100.00;100720.00;10470494;28;20040;-69
2023/09/19 01:41:06;;;;;;;279.17;265.55;;;;;;;14.77;100.00;100720.25;10488183;28;20028;-69
2023/09/19 01:46:40;;;;;;;255.73;244.20;;;;;;;14.70;100.00;100719.47;10486955;28;20055;-70
2023/09/19 01:51:49;;;;;;;199.95;190.95;;;;;;;14.64;100.00;100723.97;10495091;28;20365;-69
2023/09/19 01:57:01;;;;;;;172.25;164.55;;;;;;;14.57;100.00;100723.19;10502703;28;20028;-69
2023/09/19 02:02:08;;;;;;;164.95;157.25;;;;;;;14.59;100.00;100718.34;10471547;28;20032;-70
2023/09/19 02:07:10;;;;;;;154.80;148.45;;;;;;;14.59;100.00;100717.53;10471511;28;20207;-69
2023/09/19 02:12:11;;;;;;;180.43;172.88;;;;;;;14.61;100.00;100716.25;10469299;28;20041;-69
2023/09/19 02:17:14;;;;;;;174.90;167.15;;;;;;;14.57;100.00;100723.19;10467818;28;20349;-69
2023/09/19 02:22:16;;;;;;;176.38;168.75;;;;;;;14.61;100.00;100718.97;10502454;28;20405;-69
2023/09/19 02:27:18;;;;;;;196.60;187.18;;;;;;;14.57;100.00;100727.81;10483516;28;20040;-69
2023/09/19 02:32:19;;;;;;;183.90;176.00;;;;;;;14.68;100.00;100727.06;10502624;28;20028;-69
2023/09/19 02:37:19;;;;;;;219.68;210.07;;;;;;;14.89;100.00;100733.91;10467459;28;20056;-69
2023/09/19 02:42:20;;;;;;;176.90;168.65;;;;;;;15.13;100.00;100720.38;10501329;28;20103;-69
2023/09/19 02:47:21;;;;;;;288.63;272.98;;;;;;;15.15;100.00;100713.59;10467618;28;20048;-69
2023/09/19 02:52:22;;;;;;;163.70;157.18;;;;;;;15.28;100.00;100712.56;10501537;28;20029;-69
2023/09/19 02:57:24;;;;;;;243.45;230.02;;;;;;;15.30;100.00;100715.91;10483463;28;20058;-69
2023/09/19 03:02:25;;;;;;;188.45;180.38;;;;;;;15.47;100.00;100716.06;10501011;28;20029;-69
2023/09/19 03:07:26;;;;;;;193.13;184.55;;;;;;;15.57;100.00;100716.31;10499708;28;20068;-69
2023/09/19 03:12:29;;;;;;;206.40;196.80;;;;;;;15.62;100.00;100729.28;10483015;28;20329;-69
2023/09/19 03:17:30;;;;;;;183.85;176.18;;;;;;;15.55;100.00;100719.28;10465692;28;20052;-69
2023/09/19 03:22:31;;;;;;;224.10;214.52;;;;;;;15.61;100.00;100716.69;10499816;28;20449;-69
2023/09/19 03:27:31;;;;;;;198.10;189.85;;;;;;;15.58;100.00;100710.63;10483085;28;20040;-69
2023/09/19 03:32:32;;;;;;;311.73;297.02;;;;;;;15.39;100.00;100713.69;10481908;28;20131;-69
2023/09/19 03:37:33;;;;;;;235.43;225.20;;;;;;;15.26;100.00;100714.72;10498969;28;20039;-69
2023/09/19 03:42:36;;;;;;;209.95;200.40;;;;;;;15.22;100.00;100725.28;10481981;28;20060;-69
2023/09/19 03:47:37;;;;;;;180.18;172.27;;;;;;;15.06;100.00;100734.94;10481519;28;20073;-69
2023/09/19 03:52:37;;;;;;;227.75;217.50;;;;;;;15.10;100.00;100738.03;10480161;28;20437;-69
2023/09/19 03:57:39;;;;;;;167.50;160.77;;;;;;;15.09;100.00;100748.13;10498925;28;20040;-69
2023/09/19 04:02:40;;;;;;;225.65;216.77;;;;;;;15.11;100.00;100745.97;10480117;28;20033;-69
2023/09/19 04:07:41;;;;;;;220.88;211.95;;;;;;;15.12;100.00;100749.53;10497230;28;20028;-69
2023/09/19 04:12:54;;;;;;;225.13;215.63;;;;;;;15.09;100.00;100767.22;10497737;28;20094;-69
2023/09/19 04:17:55;;;;;;;252.10;241.45;;;;;;;15.13;100.00;100751.22;10497526;28;20481;-69
2023/09/19 04:22:56;;;;;;;212.10;202.75;;;;;;;15.15;100.00;100759.16;10463353;28;20052;-69
2023/09/19 04:27:56;;;;;;;222.48;213.40;;;;;;;15.10;100.00;100774.31;10497758;28;20485;-69
2023/09/19 04:32:57;;;;;;;222.35;212.80;;;;;;;15.03;100.00;100759.13;10464510;28;20040;-69
2023/09/19 04:37:57;;;;;;;191.10;183.30;;;;;;;14.98;100.00;100762.53;10464101;28;20029;-70
2023/09/19 04:42:58;;;;;;;236.30;226.32;;;;;;;15.03;100.00;100772.75;10463973;28;20460;-69
2023/09/19 04:47:59;;;;;;;180.23;172.82;;;;;;;15.05;100.00;100778.78;10463309;28;20099;-71
2023/09/19 04:53:00;;;;;;;225.07;215.35;;;;;;;15.03;100.00;100776.31;10462667;28;20028;-71
2023/09/19 04:58:00;;;;;;;224.85;215.15;;;;;;;15.03;100.00;100765.41;10478924;28;20028;-71
2023/09/19 05:03:03;;;;;;;223.45;212.73;;;;;;;15.24;100.00;100782.31;10496436;28;20072;-71
2023/09/19 05:08:05;;;;;;;236.57;226.40;;;;;;;15.43;100.00;100775.75;10479553;28;20036;-70
2023/09/19 05:13:07;;;;;;;221.30;211.57;;;;;;;15.48;100.00;100772.31;10478050;28;20066;-69
2023/09/19 05:18:07;;;;;;;306.08;292.65;;;;;;;15.50;100.00;100771.00;10495403;28;20060;-69
2023/09/19 05:23:09;;;;;;;301.10;284.55;;;;;;;15.50;100.00;100773.72;10496266;28;20033;-69
2023/09/19 05:28:11;;;;;;;228.13;218.70;;;;;;;15.58;100.00;100770.69;10496013;28;20546;-69
2023/09/19 05:33:12;;;;;;;211.57;201.68;;;;;;;15.39;100.00;100752.72;10462334;28;20028;-70
2023/09/19 05:38:18;;;;;;;217.43;208.73;;;;;;;15.14;100.00;100773.84;10496129;28;20036;-69
2023/09/19 05:43:19;;;;;;;198.77;190.05;;;;;;;15.00;100.00;100774.03;10495533;28;20043;-69
2023/09/19 05:48:20;;;;;;;281.17;266.23;;;;;;;15.05;100.00;100779.63;10495548;28;20048;-69
2023/09/19 05:53:23;;;;;;;183.75;176.02;;;;;;;15.08;100.00;100789.25;10495187;28;20561;-70
2023/09/19 05:58:23;;;;;;;229.73;220.07;;;;;;;15.09;100.00;100791.75;10478549;28;20496;-70
2023/09/19 06:03:24;;;;;;;213.13;204.07;;;;;;;15.08;100.00;100789.25;10495309;28;20028;-70
2023/09/19 06:08:25;;;;;;;234.88;224.75;;;;;;;15.13;100.00;100807.66;10495119;28;20120;-69
2023/09/19 06:13:29;;;;;;;302.90;289.50;;;;;;;15.14;100.00;100801.13;10495400;28;20078;-69
2023/09/19 06:18:33;;;;;;;392.33;372.15;;;;;;;15.10;100.00;100801.59;10499506;28;20090;-70
2023/09/19 06:23:35;;;;;;;260.23;247.75;;;;;;;15.15;100.00;100808.25;10485465;28;20570;-69
2023/09/19 06:28:35;;;;;;;273.17;261.50;;;;;;;15.25;100.00;100803.06;10502168;28;20375;-69
2023/09/19 06:33:39;;;;;;;376.80;359.98;;;;;;;15.32;100.00;100809.28;10501601;28;20041;-69
2023/09/19 06:38:40;;;;;;;275.30;262.67;;;;;;;15.46;100.00;100807.19;10502714;28;20108;-69
2023/09/19 06:43:41;;;;;;;235.00;224.57;;;;;;;15.69;100.00;100814.66;10502454;28;20468;-70
2023/09/19 06:48:43;;;;;;;317.95;303.15;;;;;;;15.99;100.00;100809.97;10483394;28;20044;-70
2023/09/19 06:53:44;;;;;;;293.92;280.75;;;;;;;16.03;100.00;100815.78;10502191;28;20448;-70
2023/09/19 06:58:44;;;;;;;285.17;272.63;;;;;;;16.26;100.00;100810.31;10467478;28;20024;-70
2023/09/19 07:03:46;;;;;;;251.32;239.57;;;;;;;16.49;100.00;100817.69;10500337;28;20079;-69
2023/09/19 07:08:46;;;;;;;243.38;232.93;;;;;;;16.62;100.00;100821.25;10500492;28;20036;-69
2023/09/19 07:13:47;;;;;;;259.33;248.38;;;;;;;16.85;100.00;100813.06;10483121;28;20039;-70
2023/09/19 07:18:47;;;;;;;213.32;204.48;;;;;;;17.01;100.00;100813.38;10482497;28;20057;-70
2023/09/19 07:23:49;;;;;;;223.93;213.27;;;;;;;17.16;100.00;100811.75;10500392;28;20033;-70
2023/09/19 07:28:50;;;;;;;216.93;206.85;;;;;;;17.59;100.00;100823.25;10500018;28;20055;-70
2023/09/19 07:33:50;;;;;;;286.55;274.05;;;;;;;17.82;100.00;100830.53;10482097;28;20060;-70
2023/09/19 07:38:50;;;;;;;583.08;531.00;;;;;;;17.71;100.00;100820.44;10499689;28;20126;-69
2023/09/19 07:43:52;;;;;;;334.73;320.00;;;;;;;17.80;100.00;100827.19;10481649;28;20440;-69
2023/09/19 07:48:52;;;;;;;353.08;337.80;;;;;;;18.24;100.00;100814.50;10499853;28;20043;-70
2023/09/19 07:53:54;;;;;;;506.80;481.27;;;;;;;18.77;100.00;100812.28;10500354;28;20506;-70
2023/09/19 07:58:59;;;;;;;497.98;468.52;;;;;;;19.00;100.00;100822.19;10498584;28;20511;-70
2023/09/19 08:03:59;;;;;;;650.90;609.72;;;;;;;19.29;100.00;100809.06;10481530;28;20074;-70
2023/09/19 08:09:00;;;;;;;494.75;469.40;;;;;;;19.06;100.00;100807.44;10498677;28;20488;-70
2023/09/19 08:14:01;;;;;;;497.70;471.75;;;;;;;18.64;100.00;100807.16;10498921;28;20456;-70
2023/09/19 08:19:02;;;;;;;507.23;481.35;;;;;;;18.49;100.00;100794.03;10452931;28;20064;-70
2023/09/19 08:24:04;;;;;;;410.63;391.42;;;;;;;18.86;100.00;100809.91;10456032;28;20123;-70
2023/09/19 08:29:07;;;;;;;489.25;464.83;;;;;;;18.03;100.00;100805.16;10438571;28;20048;-69
2023/09/19 08:34:07;;;;;;;515.15;489.55;;;;;;;17.24;100.00;100807.81;10455832;28;20499;-69
2023/09/19 08:39:08;;;;;;;522.58;495.33;;;;;;;16.88;100.00;100804.38;10454857;28;20036;-69
2023/09/19 08:44:10;;;;;;;512.25;486.02;;;;;;;16.81;100.00;100789.97;10457077;28;20037;-70
2023/09/19 08:49:30;;;;;;;606.80;568.30;;;;;;;16.89;100.00;100786.88;10438337;28;20033;-69
2023/09/19 08:54:35;;;;;;;402.58;383.77;;;;;;;17.26;100.00;100799.34;10439422;28;20036;-69
2023/09/19 08:59:36;;;;;;;564.17;528.35;;;;;;;18.57;100.00;100799.09;10454342;28;20020;-70
2023/09/19 09:04:36;;;;;;;672.38;627.95;;;;;;;19.58;100.00;100798.66;10454940;28;20039;-69
2023/09/19 09:09:37;;;;;;;1576.53;889.20;;;;;;;20.39;100.00;100798.53;10453668;28;20513;-70
2023/09/19 09:14:38;;;;;;;603.15;570.40;;;;;;;20.14;100.00;100795.59;10421534;28;20033;-70
2023/09/19 09:19:38;;;;;;;641.78;599.67;;;;;;;18.93;100.00;100794.94;10437052;28;20396;-70
2023/09/19 09:24:58;;;;;;;1086.32;828.90;;;;;;;19.09;100.00;100809.69;10454767;28;20037;-69
2023/09/19 09:29:58;;;;;;;590.22;556.42;;;;;;;19.78;100.00;100814.53;10436909;28;20112;-70
2023/09/19 09:35:00;;;;;;;934.47;855.75;;;;;;;19.78;100.00;100786.22;10452486;28;20032;-70
2023/09/19 09:45:28;;;;;;;619.55;586.38;;;;;;;19.17;100.00;100778.19;10453667;28;20037;-70
2023/09/19 09:56:06;;;;;;;616.15;583.17;;;;;;;19.32;100.00;100767.38;10461359;28;20108;-70
2023/09/19 10:01:10;;;;;;;;;;;;;;;19.62;100.00;100764.09;10461425;28;20454;-70
2023/09/19 10:06:27;;;;;;;658.95;621.88;;;;;;;19.63;100.00;100773.16;10460662;28;19951;-70
2023/09/19 10:11:30;;;;;;;717.70;673.70;;;;;;;20.20;100.00;100750.56;10446112;28;20469;-69
2023/09/19 10:16:32;;;;;;;826.42;757.10;;;;;;;20.19;100.00;100740.63;10468949;28;20051;-70
2023/09/19 10:21:33;;;;;;;676.03;636.67;;;;;;;20.31;100.00;100734.94;10453077;28;20103;-69
2023/09/19 10:26:35;;;;;;;869.55;812.55;;;;;;;20.39;100.00;100749.03;10468114;28;20035;-70
2023/09/19 10:31:36;;;;;;;784.60;729.05;;;;;;;20.95;100.00;100739.38;10484959;28;20126;-70
2023/09/19 10:36:37;;;;;;;652.67;615.92;;;;;;;20.09;100.00;100743.31;10469201;28;20162;-70
2023/09/19 10:41:37;;;;;;;706.88;663.40;;;;;;;19.76;100.00;100733.47;10467352;28;20025;-70
2023/09/19 10:46:38;;;;;;;605.90;573.92;;;;;;;20.00;100.00;100729.25;10484297;28;20047;-70
2023/09/19 10:51:42;;;;;;;680.50;638.10;;;;;;;20.43;100.00;100730.88;10467408;28;20040;-70
2023/09/19 10:56:45;;;;;;;918.72;824.97;;;;;;;20.55;100.00;100719.69;10466958;28;20190;-70
2023/09/19 11:01:53;;;;;;;734.78;676.92;;;;;;;19.74;100.00;100726.31;10449961;28;20056;-70
2023/09/19 11:07:20;;;;;;;697.28;655.78;;;;;;;20.16;100.00;100710.91;10468584;28;20075;-70
2023/09/19 11:12:46;;;;;;;1767.40;999.90;;;;;;;20.12;100.00;100705.13;10480384;28;20124;-70
2023/09/19 11:17:47;;;;;;;742.95;696.60;;;;;;;19.53;100.00;100708.00;10494677;28;20079;-70
2023/09/19 11:22:56;;;;;;;762.70;707.95;;;;;;;19.39;100.00;100698.50;10501068;28;20029;-70
2023/09/19 11:28:09;;;;;;;769.00;715.00;;;;;;;19.50;100.00;100708.50;10501437;28;20024;-70
2023/09/19 11:33:28;;;;;;;679.42;640.67;;;;;;;19.42;100.00;100711.72;10499566;28;20150;-70
2023/09/19 11:38:47;;;;;;;679.90;640.80;;;;;;;19.25;100.00;100700.88;10499764;28;20033;-70
2023/09/19 11:43:48;;;;;;;669.30;631.67;;;;;;;19.00;100.00;100698.69;10482249;28;20054;-70
2023/09/19 11:48:49;;;;;;;686.20;646.63;;;;;;;19.29;100.00;100694.56;10499596;28;20115;-70
2023/09/19 11:53:50;;;;;;;697.95;657.58;;;;;;;19.63;100.00;100686.09;10464991;28;20035;-70
2023/09/19 11:58:55;;;;;;;714.05;668.78;;;;;;;19.96;100.00;100693.22;10481374;28;20346;-70
2023/09/19 12:03:57;;;;;;;803.65;731.42;;;;;;;20.17;100.00;100685.09;10465085;28;20024;-70
2023/09/19 12:08:59;;;;;;;722.22;678.42;;;;;;;20.52;100.00;100689.97;10464466;28;20067;-70
2023/09/19 12:14:03;;;;;;;730.25;684.75;;;;;;;20.40;100.00;100695.66;10463634;28;20045;-70
2023/09/19 12:19:23;;;;;;;700.75;658.55;;;;;;;20.33;100.00;100686.00;10464868;28;20480;-69
2023/09/19 12:24:29;;;;;;;807.65;749.90;;;;;;;20.11;100.00;100683.41;10464134;28;20032;-71
2023/09/19 12:29:31;;;;;;;661.95;623.53;;;;;;;19.70;100.00;100697.72;10481027;28;20046;-70
2023/09/19 12:34:34;;;;;;;1011.50;904.17;;;;;;;20.18;100.00;100703.25;10478706;28;20040;-70
2023/09/19 12:39:35;;;;;;;658.65;621.17;;;;;;;20.19;100.00;100700.22;10480334;28;20028;-70
2023/09/19 12:44:37;;;;;;;1022.20;873.40;;;;;;;20.76;100.00;100692.25;10479293;28;20032;-70
2023/09/19 12:50:08;;;;;;;737.22;692.58;;;;;;;20.25;100.00;100687.31;10446995;28;20035;-70
2023/09/19 12:55:19;;;;;;;726.25;681.28;;;;;;;19.73;100.00;100699.94;10479712;28;20057;-70
2023/09/19 13:00:21;;;;;;;712.38;669.03;;;;;;;19.45;100.00;100698.28;10480221;28;20107;-70
2023/09/19 13:05:22;;;;;;;638.75;603.05;;;;;;;19.24;100.00;100689.06;10461935;28;20064;-70
2023/09/19 13:10:24;;;;;;;658.95;620.92;;;;;;;18.78;100.00;100691.31;10479759;28;20186;-70
2023/09/19 13:15:26;;;;;;;703.45;661.78;;;;;;;18.52;100.00;100694.81;10478888;28;20451;-70
2023/09/19 13:20:32;;;;;;;641.75;606.78;;;;;;;18.74;100.00;100673.72;10462538;28;20060;-70
2023/09/19 13:25:33;;;;;;;626.53;591.60;;;;;;;18.89;100.00;100677.69;10496150;28;20035;-70
2023/09/19 13:30:33;;;;;;;654.05;616.13;;;;;;;18.90;100.00;100685.69;10479415;28;20036;-70
2023/09/19 13:35:34;;;;;;;916.05;820.75;;;;;;;19.06;100.00;100667.47;10461757;28;20037;-70
2023/09/19 13:40:34;;;;;;;642.15;605.10;;;;;;;19.15;100.00;100676.88;10462157;28;20029;-70
2023/09/19 13:45:36;;;;;;;641.88;606.28;;;;;;;19.02;100.00;100674.56;10496246;28;20047;-70
2023/09/19 13:50:41;;;;;;;594.92;562.97;;;;;;;18.95;100.00;100684.91;10477203;28;20468;-70
2023/09/19 13:55:42;;;;;;;746.15;694.92;;;;;;;18.61;100.00;100689.72;10461679;28;20051;-70
2023/09/19 14:00:43;;;;;;;789.25;726.58;;;;;;;17.91;100.00;100722.22;10477107;28;20075;-70
2023/09/19 14:05:43;;;;;;;411.13;385.73;;;;;;;17.47;100.00;100683.69;10477658;28;20033;-70
2023/09/19 14:10:44;;;;;;;722.90;660.33;;;;;;;17.69;100.00;100694.72;10495473;28;20036;-70
2023/09/19 14:15:45;;;;;;;524.17;497.52;;;;;;;17.77;100.00;100690.75;10476285;28;20051;-70
2023/09/19 14:20:46;;;;;;;532.13;503.95;;;;;;;17.98;100.00;100675.47;10460126;28;20039;-70
2023/09/19 14:25:46;;;;;;;645.47;608.75;;;;;;;17.91;100.00;100692.06;10477818;28;20131;-70
2023/09/19 14:30:48;;;;;;;653.38;615.70;;;;;;;18.03;100.00;100667.31;10459962;28;20513;-70
2023/09/19 14:35:49;;;;;;;660.97;622.65;;;;;;;18.07;100.00;100680.25;10494359;28;20132;-70
2023/09/19 14:41:00;;;;;;;1589.05;985.92;;;;;;;18.16;100.00;100672.44;10500936;28;20107;-70
2023/09/19 14:46:04;;;;;;;828.80;772.40;;;;;;;18.21;100.00;100675.22;10484068;28;20032;-70
2023/09/19 14:51:11;;;;;;;803.90;749.80;;;;;;;18.09;100.00;100688.19;10483155;28;20055;-70
2023/09/19 14:56:13;;;;;;;766.88;715.13;;;;;;;17.67;100.00;100696.88;10500845;28;20027;-70
2023/09/19 15:01:13;;;;;;;719.05;669.30;;;;;;;17.35;100.00;100675.53;10501187;28;20366;-70
2023/09/19 15:06:19;;;;;;;561.67;532.80;;;;;;;17.34;100.00;100682.09;10483139;28;20037;-70
2023/09/19 15:11:20;;;;;;;523.88;496.75;;;;;;;17.43;100.00;100674.31;10500411;28;20028;-70
2023/09/19 15:16:20;;;;;;;543.25;513.28;;;;;;;17.64;100.00;100692.75;10481699;28;20048;-70
2023/09/19 15:21:21;;;;;;;523.13;495.40;;;;;;;17.63;100.00;100702.00;10500272;28;20084;-70
2023/09/19 15:26:22;;;;;;;546.35;516.95;;;;;;;17.28;100.00;100712.38;10499883;28;20471;-70
2023/09/19 15:31:23;;;;;;;602.05;568.03;;;;;;;17.00;100.00;100715.94;10500380;28;20032;-70
2023/09/19 15:36:23;;;;;;;595.95;563.63;;;;;;;16.93;100.00;100711.44;10481966;28;20559;-70
2023/09/19 15:41:24;;;;;;;721.55;676.30;;;;;;;16.86;100.00;100718.97;10500722;28;20377;-70
2023/09/19 15:46:26;;;;;;;727.22;682.17;;;;;;;16.73;100.00;100702.84;10465500;28;20341;-70
2023/09/19 15:51:27;;;;;;;699.05;657.63;;;;;;;16.78;100.00;100697.47;10481178;28;20090;-70
2023/09/19 15:56:28;;;;;;;833.47;777.33;;;;;;;16.81;100.00;100698.91;10481095;28;20106;-70
2023/09/19 16:01:28;;;;;;;802.65;748.83;;;;;;;16.94;100.00;100704.94;10464111;28;20033;-70
2023/09/19 16:06:29;;;;;;;819.08;762.50;;;;;;;16.85;100.00;100692.72;10498024;28;20040;-70
2023/09/19 16:11:32;;;;;;;781.75;731.67;;;;;;;16.80;100.00;100691.78;10463491;28;20040;-70
2023/09/19 16:16:34;;;;;;;864.85;801.58;;;;;;;16.75;100.00;100692.50;10498553;28;20442;-70
2023/09/19 16:21:36;;;;;;;737.20;690.90;;;;;;;16.67;100.00;100692.88;10464477;28;20059;-71
2023/09/19 16:26:39;;;;;;;964.03;879.28;;;;;;;16.63;100.00;100699.91;10498606;28;20119;-70
2023/09/19 16:31:41;;;;;;;805.20;751.92;;;;;;;16.57;100.00;100698.97;10480549;28;20035;-70
2023/09/19 16:36:41;;;;;;;786.58;734.72;;;;;;;16.51;100.00;100678.88;10497328;28;20043;-69
2023/09/19 16:41:42;;;;;;;916.42;848.72;;;;;;;16.42;100.00;100710.38;10479174;28;20386;-69
2023/09/19 16:46:43;;;;;;;775.25;725.10;;;;;;;16.30;100.00;100704.13;10497080;28;20033;-69
2023/09/19 16:51:45;;;;;;;877.97;816.95;;;;;;;16.15;100.00;100707.34;10496915;28;20141;-69
2023/09/19 16:56:46;;;;;;;725.35;680.72;;;;;;;16.07;100.00;100699.50;10478953;28;20032;-69
2023/09/19 17:01:46;;;;;;;701.42;659.50;;;;;;;16.04;100.00;100700.00;10496534;28;20040;-70
2023/09/19 17:06:47;;;;;;;783.00;724.22;;;;;;;16.00;100.00;100707.84;10496792;28;20036;-70
2023/09/19 17:11:48;;;;;;;810.15;756.72;;;;;;;15.99;100.00;100703.44;10496519;28;20464;-70
2023/09/19 17:16:48;;;;;;;817.65;763.90;;;;;;;15.97;100.00;100711.03;10496560;28;20061;-70
2023/09/19 17:21:49;;;;;;;832.33;777.53;;;;;;;15.93;100.00;100693.47;10496021;28;20032;-70
2023/09/19 17:26:49;;;;;;;887.63;819.53;;;;;;;15.92;100.00;100678.16;10497089;28;20354;-70
2023/09/19 17:31:50;;;;;;;929.83;859.45;;;;;;;15.88;100.00;100682.41;10497035;28;20060;-71
2023/09/19 17:36:51;;;;;;;869.63;810.55;;;;;;;15.87;100.00;100699.88;10497302;28;20043;-70
2023/09/19 17:41:51;;;;;;;742.85;696.30;;;;;;;15.85;100.00;100717.56;10497215;28;20463;-70
2023/09/19 17:46:52;;;;;;;823.53;770.05;;;;;;;15.76;100.00;100715.22;10495037;28;20484;-70
2023/09/19 17:51:52;;;;;;;858.42;801.08;;;;;;;15.69;100.00;100706.28;10495759;28;20035;-71
2023/09/19 17:56:54;;;;;;;852.20;795.65;;;;;;;15.70;100.00;100707.13;10495803;28;20428;-71
2023/09/19 18:01:54;;;;;;;845.35;786.90;;;;;;;15.70;100.00;100715.31;10477663;28;20408;-71
2023/09/19 18:06:55;;;;;;;923.40;851.53;;;;;;;15.64;100.00;100711.59;10477857;28;20040;-71
2023/09/19 18:11:56;;;;;;;854.65;797.72;;;;;;;15.65;100.00;100717.88;10496248;28;20028;-74
2023/09/19 18:16:57;;;;;;;865.70;808.05;;;;;;;15.66;100.00;100712.19;10503112;28;20059;-73
2023/09/19 18:21:59;;;;;;;825.00;769.60;;;;;;;15.61;100.00;100711.25;10501905;28;20028;-74
2023/09/19 18:27:01;;;;;;;878.17;816.83;;;;;;;15.62;100.00;100723.81;10503608;28;20372;-73
2023/09/19 18:32:01;;;;;;;841.60;784.25;;;;;;;15.67;100.00;100726.72;10502604;28;20032;-74
2023/09/19 18:37:02;;;;;;;824.38;770.20;;;;;;;15.64;100.00;100730.69;10501984;28;20037;-74
2023/09/19 18:42:03;;;;;;;888.97;829.38;;;;;;;15.68;100.00;100733.81;10482672;28;20057;-74
2023/09/19 18:47:03;;;;;;;784.97;734.88;;;;;;;15.71;100.00;100736.09;10483510;28;20032;-75
2023/09/19 18:52:07;;;;;;;877.75;819.50;;;;;;;15.75;100.00;100731.81;10483357;28;20048;-75
2023/09/19 18:57:08;;;;;;;954.15;884.40;;;;;;;15.77;100.00;100718.75;10501183;28;20040;-74
2023/09/19 19:02:10;;;;;;;884.38;823.83;;;;;;;15.79;100.00;100725.66;10483751;28;20111;-74
2023/09/19 19:07:15;;;;;;;849.47;793.05;;;;;;;15.85;100.00;100714.84;10466485;28;20438;-73
2023/09/19 19:12:16;;;;;;;833.13;778.63;;;;;;;15.93;100.00;100706.31;10500095;28;20033;-73
2023/09/19 19:17:16;;;;;;;900.50;834.75;;;;;;;15.89;100.00;100703.22;10501383;28;20052;-73
2023/09/19 19:22:17;;;;;;;852.53;794.80;;;;;;;15.91;100.00;100698.34;10499929;28;20036;-73
2023/09/19 19:27:19;;;;;;;828.53;774.10;;;;;;;15.96;100.00;100697.63;10482292;28;20077;-73
2023/09/19 19:32:24;;;;;;;1074.22;964.63;;;;;;;15.97;100.00;100711.03;10347566;28;66100;-73
2023/09/19 19:37:25;;;;;;;840.25;784.38;;;;;;;16.07;100.00;100717.81;10470697;28;20162;-72
2023/09/19 19:42:28;;;;;;;880.75;818.90;;;;;;;16.15;100.00;100728.38;10480864;28;20540;-72
2023/09/19 19:47:30;;;;;;;1534.15;999.90;;;;;;;16.14;100.00;100716.59;10499099;28;20057;-71
2023/09/19 19:52:32;;;;;;;831.90;777.30;;;;;;;16.15;100.00;100722.91;10481569;28;20478;-73
2023/09/19 19:57:34;;;;;;;841.92;786.50;;;;;;;16.23;100.00;100736.19;10498876;28;20048;-72
2023/09/19 20:02:35;;;;;;;906.58;842.25;;;;;;;16.25;100.00;100729.44;10497963;28;20037;-74
2023/09/19 20:07:36;;;;;;;821.72;767.58;;;;;;;16.34;100.00;100734.56;10483660;28;20060;-72
2023/09/19 20:12:37;;;;;;;824.97;771.13;;;;;;;16.36;100.00;100735.13;10501864;28;20112;-72
2023/09/19 20:17:37;;;;;;;864.03;805.63;;;;;;;16.37;100.00;100737.63;10496062;28;20049;-73
2023/09/19 20:22:38;;;;;;;781.05;730.60;;;;;;;16.40;100.00;100744.50;10496506;28;20117;-72
2023/09/19 20:27:41;;;;;;;832.45;777.97;;;;;;;16.46;100.00;100736.19;10497959;28;20040;-72
2023/09/19 20:32:45;;;;;;;837.50;782.30;;;;;;;16.50;100.00;100728.34;10497548;28;20039;-72
2023/09/19 20:37:49;;;;;;;860.45;803.05;;;;;;;16.52;100.00;100731.63;10478670;28;20116;-72
2023/09/19 20:42:50;;;;;;;848.90;793.30;;;;;;;16.58;100.00;100717.00;10497640;28;20033;-72
2023/09/19 20:47:52;;;;;;;837.33;782.92;;;;;;;16.64;100.00;100729.72;10480215;28;20150;-73
2023/09/19 20:52:53;;;;;;;858.67;801.95;;;;;;;16.76;100.00;100728.91;10497673;28;20056;-72
2023/09/19 20:57:53;;;;;;;851.40;793.65;;;;;;;16.74;100.00;100713.50;10496687;28;20464;-72
2023/09/19 21:02:54;;;;;;;931.78;867.08;;;;;;;16.80;100.00;100719.94;10495061;28;20041;-73
2023/09/19 21:07:54;;;;;;;839.03;783.70;;;;;;;16.80;100.00;100728.16;10477673;28;20071;-73
2023/09/19 21:12:55;;;;;;;818.60;764.63;;;;;;;16.69;100.00;100729.00;10496268;28;20032;-72
2023/09/19 21:17:56;;;;;;;910.72;847.38;;;;;;;16.66;100.00;100732.22;10497211;28;20121;-72
2023/09/19 21:22:56;;;;;;;877.03;816.53;;;;;;;16.68;100.00;100719.13;10496927;28;20036;-73
2023/09/19 21:27:57;;;;;;;896.35;834.53;;;;;;;16.58;100.00;100702.50;10495804;28;20115;-72
2023/09/19 21:32:57;;;;;;;859.25;801.95;;;;;;;16.62;100.00;100717.34;10495702;28;20055;-72
2023/09/19 21:37:58;;;;;;;849.85;792.97;;;;;;;16.64;100.00;100704.28;10477561;28;20115;-73
2023/09/19 21:42:58;;;;;;;1048.80;946.50;;;;;;;16.63;100.00;100703.47;10496318;28;20060;-72
2023/09/19 21:47:58;;;;;;;665.50;604.30;;;;;;;16.71;100.00;100699.50;10497607;28;20058;-72
2023/09/19 21:52:59;;;;;;;840.95;784.95;;;;;;;16.81;100.00;100705.19;10504534;28;20037;-72
2023/09/19 21:57:59;;;;;;;933.05;866.33;;;;;;;16.91;100.00;100699.09;10486116;28;20035;-73
2023/09/19 22:03:06;;;;;;;858.47;801.97;;;;;;;16.98;100.00;100704.44;10504967;28;20043;-73
2023/09/19 22:08:10;;;;;;;910.75;843.15;;;;;;;16.95;100.00;100695.63;10485634;28;20125;-73
2023/09/19 22:13:12;;;;;;;853.28;796.65;;;;;;;16.95;100.00;100692.91;10502631;28;20032;-73